createdAt,value
2023-01-10T00:02:10.770Z,100.00
2023-01-10T00:05:00.683Z,100.00
2023-01-10T00:07:49.199Z,100.00
2023-01-10T00:10:37.678Z,100.00
2023-01-10T00:13:25.234Z,100.00
2023-01-10T00:16:13.758Z,100.00
2023-01-10T00:19:02.218Z,100.00
2023-01-10T00:21:52.028Z,100.00
2023-01-10T00:24:41.424Z,100.00
2023-01-10T00:27:29.862Z,100.00
2023-01-10T00:30:18.549Z,100.00
2023-01-10T00:33:07.696Z,100.00
2023-01-10T00:35:56.105Z,100.00
2023-01-10T00:38:45.904Z,100.00
2023-01-10T00:41:52.111Z,100.00
2023-01-10T00:44:40.508Z,100.00
2023-01-10T00:47:29.023Z,100.00
2023-01-10T00:50:17.876Z,100.00
2023-01-10T00:53:06.404Z,100.00
2023-01-10T00:55:56.429Z,100.00
2023-01-10T00:58:45.038Z,100.00
2023-01-10T01:01:33.673Z,100.00
2023-01-10T01:04:22.571Z,100.00
2023-01-10T01:07:11.034Z,100.00
2023-01-10T01:10:25.252Z,100.00
2023-01-10T01:13:16.818Z,100.00
2023-01-10T01:16:05.939Z,100.00
2023-01-10T01:18:54.530Z,100.00
2023-01-10T01:21:42.967Z,100.00
2023-01-10T01:24:31.418Z,100.00
2023-01-10T01:27:20.885Z,100.00
2023-01-10T01:30:12.596Z,100.00
2023-01-10T01:33:01.042Z,100.00
2023-01-10T01:35:50.458Z,100.00
2023-01-10T01:38:39.373Z,100.00
2023-01-10T01:41:45.420Z,100.00
2023-01-10T01:44:36.799Z,100.00
2023-01-10T01:47:27.905Z,100.00
2023-01-10T01:50:17.964Z,100.00
2023-01-10T01:53:12.736Z,100.00
2023-01-10T01:56:02.552Z,100.00
2023-01-10T01:58:54.537Z,100.00
2023-01-10T02:01:45.566Z,100.00
2023-01-10T02:04:40.040Z,100.00
2023-01-10T02:07:30.624Z,100.00
2023-01-10T02:10:24.178Z,100.00
2023-01-10T02:13:15.823Z,100.00
2023-01-10T02:16:04.420Z,100.00
2023-01-10T02:18:53.077Z,100.00
2023-01-10T02:22:10.562Z,100.00
2023-01-10T02:25:21.418Z,100.00
2023-01-10T02:28:26.309Z,100.00
2023-01-10T02:31:24.543Z,100.00
2023-01-10T02:34:20.597Z,100.00
2023-01-10T02:37:14.064Z,100.00
2023-01-10T02:40:08.647Z,100.00
2023-01-10T02:43:02.008Z,100.00
2023-01-10T02:45:57.174Z,100.00
2023-01-10T02:48:45.621Z,100.00
2023-01-10T02:51:35.439Z,100.00
2023-01-10T02:54:27.659Z,100.00
2023-01-10T02:57:36.731Z,100.00
2023-01-10T03:00:33.870Z,100.00
2023-01-10T03:03:33.121Z,100.00
2023-01-10T03:06:24.984Z,100.00
2023-01-10T03:09:17.957Z,100.00
2023-01-10T03:14:50.669Z,100.00
2023-01-10T03:17:39.350Z,100.00
2023-01-10T03:20:28.496Z,100.00
2023-01-10T03:23:17.907Z,100.00
2023-01-10T03:26:07.185Z,100.00
2023-01-10T03:28:58.667Z,100.00
2023-01-10T03:31:51.749Z,100.00
2023-01-10T03:34:40.948Z,100.00
2023-01-10T03:37:36.012Z,100.00
2023-01-10T03:40:30.315Z,100.00
2023-01-10T03:43:38.678Z,100.00
2023-01-10T03:46:30.851Z,100.00
2023-01-10T03:49:21.842Z,100.00
2023-01-10T03:52:13.092Z,100.00
2023-01-10T03:55:02.603Z,100.00
2023-01-10T03:57:51.044Z,100.00
2023-01-10T04:00:41.492Z,100.00
2023-01-10T04:03:29.908Z,100.00
2023-01-10T04:06:20.172Z,100.00
2023-01-10T04:09:09.014Z,100.00
2023-01-10T04:11:57.426Z,100.00
2023-01-10T04:14:46.833Z,100.00
2023-01-10T04:17:35.291Z,100.00
2023-01-10T04:20:25.175Z,100.00
2023-01-10T04:23:14.982Z,100.00
2023-01-10T04:26:03.468Z,100.00
2023-01-10T04:28:51.987Z,100.00
2023-01-10T04:31:40.987Z,100.00
2023-01-10T04:34:29.478Z,100.00
2023-01-10T04:37:17.889Z,100.00
2023-01-10T04:40:09.341Z,100.00
2023-01-10T04:42:57.809Z,100.00
2023-01-10T04:45:46.300Z,100.00
2023-01-10T04:48:34.871Z,100.00
2023-01-10T04:51:23.341Z,100.00
2023-01-10T04:54:11.768Z,100.00
2023-01-10T04:57:01.522Z,100.00
2023-01-10T04:59:50.017Z,100.00
2023-01-10T05:02:42.560Z,100.00
2023-01-10T05:05:31.877Z,100.00
2023-01-10T05:08:20.335Z,100.00
2023-01-10T05:11:08.813Z,100.00
2023-01-10T05:13:58.647Z,100.00
2023-01-10T05:16:47.121Z,100.00
2023-01-10T05:19:35.659Z,100.00
2023-01-10T05:22:24.111Z,100.00
2023-01-10T05:25:12.584Z,100.00
2023-01-10T05:28:01.059Z,100.00
2023-01-10T05:30:51.239Z,100.00
2023-01-10T05:33:40.065Z,100.00
2023-01-10T05:36:28.509Z,100.00
2023-01-10T05:39:16.996Z,100.00
2023-01-10T05:42:05.775Z,100.00
2023-01-10T05:44:54.300Z,100.00
2023-01-10T05:47:45.016Z,100.00
2023-01-10T05:50:33.485Z,100.00
2023-01-10T05:53:21.933Z,100.00
2023-01-10T05:56:10.704Z,100.00
2023-01-10T05:59:06.595Z,100.00
2023-01-10T06:02:00.265Z,100.00
2023-01-10T06:04:51.525Z,100.00
2023-01-10T06:07:39.954Z,100.00
2023-01-10T06:10:28.596Z,100.00
2023-01-10T06:13:17.249Z,100.00
2023-01-10T06:16:06.430Z,100.00
2023-01-10T06:18:55.006Z,100.00
2023-01-10T06:21:44.846Z,100.00
2023-01-10T06:24:33.327Z,100.00
2023-01-10T06:27:22.535Z,100.00
2023-01-10T06:30:13.145Z,100.00
2023-01-10T06:33:02.919Z,100.00
2023-01-10T06:35:51.406Z,100.00
2023-01-10T06:38:41.198Z,100.00
2023-01-10T06:41:29.704Z,100.00
2023-01-10T06:44:18.165Z,100.00
2023-01-10T06:47:06.704Z,100.00
2023-01-10T06:49:55.192Z,100.00
2023-01-10T06:52:43.679Z,100.00
2023-01-10T06:55:33.557Z,100.00
2023-01-10T06:58:22.062Z,100.00
2023-01-10T07:01:15.034Z,100.00
2023-01-10T07:04:03.605Z,100.00
2023-01-10T07:06:52.091Z,100.00
2023-01-10T07:09:40.570Z,100.00
2023-01-10T07:12:30.531Z,100.00
2023-01-10T07:15:19.291Z,100.00
2023-01-10T07:18:07.906Z,100.00
2023-01-10T07:20:56.458Z,100.00
2023-01-10T07:23:44.994Z,100.00
2023-01-10T07:26:33.466Z,100.00
2023-01-10T07:29:23.352Z,100.00
2023-01-10T07:32:11.764Z,100.00
2023-01-10T07:35:00.264Z,100.00
2023-01-10T07:37:48.779Z,100.00
2023-01-10T07:40:37.277Z,100.00
2023-01-10T07:43:25.774Z,100.00
2023-01-10T07:46:15.684Z,100.00
2023-01-10T07:49:04.162Z,100.00
2023-01-10T07:51:52.695Z,100.00
2023-01-10T07:54:41.146Z,100.00
2023-01-10T07:57:29.609Z,100.00
2023-01-10T08:00:19.083Z,100.00
2023-01-10T08:03:11.556Z,100.00
2023-01-10T08:06:01.058Z,100.00
2023-01-10T08:08:49.562Z,100.00
2023-01-10T08:11:39.693Z,100.00
2023-01-10T08:14:29.260Z,100.00
2023-01-10T08:17:17.928Z,100.00
2023-01-10T08:20:09.314Z,100.00
2023-01-10T08:22:58.260Z,100.00
2023-01-10T08:25:47.200Z,100.00
2023-01-10T08:28:35.680Z,100.00
2023-01-10T08:31:24.854Z,100.00
2023-01-10T08:34:14.411Z,100.00
2023-01-10T08:37:04.244Z,100.00
2023-01-10T08:39:52.799Z,100.00
2023-01-10T08:42:41.226Z,100.00
2023-01-10T08:45:29.938Z,100.00
2023-01-10T08:48:18.443Z,100.00
2023-01-10T08:51:08.792Z,100.00
2023-01-10T08:53:58.640Z,100.00
2023-01-10T08:56:47.078Z,100.00
2023-01-10T08:59:35.546Z,100.00
2023-01-10T09:02:24.127Z,100.00
2023-01-10T09:05:26.411Z,100.00
2023-01-10T09:08:15.400Z,100.00
2023-01-10T09:11:06.112Z,100.00
2023-01-10T09:13:54.707Z,100.00
2023-01-10T09:16:43.205Z,100.00
2023-01-10T09:19:31.671Z,100.00
2023-01-10T09:22:20.210Z,100.00
2023-01-10T09:25:09.512Z,100.00
2023-01-10T09:28:00.150Z,100.00
2023-01-10T09:30:49.209Z,99.78
2023-01-10T09:33:46.144Z,99.24
2023-01-10T09:36:35.550Z,98.73
2023-01-10T09:39:24.076Z,99.57
2023-01-10T09:42:25.373Z,99.38
2023-01-10T09:45:18.431Z,98.74
2023-01-10T09:48:08.849Z,97.86
2023-01-10T09:51:11.564Z,97.43
2023-01-10T09:54:11.164Z,95.38
2023-01-10T09:57:02.346Z,95.09
2023-01-10T09:59:53.756Z,92.58
2023-01-10T10:02:46.928Z,92.12
2023-01-10T10:05:35.461Z,91.20
2023-01-10T10:08:24.085Z,91.96
2023-01-10T10:11:29.923Z,94.25
2023-01-10T10:14:29.406Z,92.58
2023-01-10T10:17:27.632Z,92.07
2023-01-10T10:20:25.998Z,90.93
2023-01-10T10:23:28.307Z,89.69
2023-01-10T10:26:22.033Z,91.03
2023-01-10T10:29:39.540Z,89.92
2023-01-10T10:32:37.132Z,91.69
2023-01-10T10:35:30.611Z,90.89
2023-01-10T10:38:23.089Z,90.22
2023-01-10T10:41:17.661Z,89.12
2023-01-10T10:44:17.378Z,90.79
2023-01-10T10:47:12.537Z,89.89
2023-01-10T10:50:08.378Z,89.67
2023-01-10T10:52:58.766Z,89.55
2023-01-10T10:55:47.614Z,89.66
2023-01-10T10:58:36.136Z,90.04
2023-01-10T11:01:26.657Z,89.57
2023-01-10T11:04:18.204Z,89.86
2023-01-10T11:07:06.631Z,90.87
2023-01-10T11:10:10.685Z,89.03
2023-01-10T11:13:01.399Z,89.66
2023-01-10T11:15:50.878Z,89.28
2023-01-10T11:18:41.558Z,87.65
2023-01-10T11:21:30.073Z,85.72
2023-01-10T11:24:27.834Z,86.07
2023-01-10T11:27:19.993Z,85.01
2023-01-10T11:30:11.562Z,85.00
2023-01-10T11:33:03.044Z,83.68
2023-01-10T11:36:00.346Z,80.10
2023-01-10T11:39:01.096Z,80.05
2023-01-10T11:41:52.450Z,82.28
2023-01-10T11:44:42.226Z,80.78
2023-01-10T11:47:32.349Z,78.89
2023-01-10T11:50:26.263Z,79.22
2023-01-10T11:53:35.031Z,79.86
2023-01-10T11:56:28.399Z,81.05
2023-01-10T11:59:18.575Z,79.60
2023-01-10T12:02:14.609Z,78.18
2023-01-10T12:05:04.932Z,78.29
2023-01-10T12:07:58.291Z,77.92
2023-01-10T12:10:57.473Z,78.40
2023-01-10T12:13:48.071Z,78.96
2023-01-10T12:16:37.056Z,80.54
2023-01-10T12:19:26.904Z,78.93
2023-01-10T12:22:16.267Z,77.09
2023-01-10T12:25:07.423Z,76.70
2023-01-10T12:27:56.324Z,74.85
2023-01-10T12:30:50.038Z,74.48
2023-01-10T12:33:46.399Z,74.07
2023-01-10T12:36:45.434Z,74.08
2023-01-10T12:39:35.686Z,74.70
2023-01-10T12:42:48.627Z,75.30
2023-01-10T12:45:42.180Z,75.58
2023-01-10T12:48:35.843Z,75.16
2023-01-10T12:51:26.161Z,71.98
2023-01-10T12:54:18.195Z,71.82
2023-01-10T12:57:21.152Z,71.75
2023-01-10T13:00:19.256Z,72.45
2023-01-10T13:03:14.854Z,71.81
2023-01-10T13:06:05.431Z,71.29
2023-01-10T13:08:54.462Z,71.22
2023-01-10T13:11:50.715Z,68.89
2023-01-10T13:14:43.421Z,69.51
2023-01-10T13:17:39.109Z,67.97
2023-01-10T13:20:30.432Z,68.70
2023-01-10T13:23:30.350Z,69.22
2023-01-10T13:26:19.320Z,68.77
2023-01-10T13:29:12.577Z,68.30
2023-01-10T13:32:03.228Z,67.27
2023-01-10T13:34:52.642Z,66.64
2023-01-10T13:37:44.587Z,67.69
2023-01-10T13:40:33.230Z,67.74
2023-01-10T13:43:34.706Z,67.07
2023-01-10T13:46:51.561Z,67.79
2023-01-10T13:49:43.908Z,68.29
2023-01-10T13:52:33.951Z,69.30
2023-01-10T13:55:26.230Z,70.22
2023-01-10T13:58:59.815Z,69.10
2023-01-10T14:02:11.021Z,66.89
2023-01-10T14:05:01.166Z,68.65
2023-01-10T14:07:51.730Z,67.59
2023-01-10T14:10:40.244Z,69.45
2023-01-10T14:13:28.774Z,69.71
2023-01-10T14:16:33.084Z,68.70
2023-01-10T14:19:27.864Z,69.78
2023-01-10T14:22:30.884Z,70.13
2023-01-10T14:25:22.184Z,70.43
2023-01-10T14:28:20.591Z,70.50
2023-01-10T14:31:13.720Z,70.23
2023-01-10T14:34:03.100Z,70.85
2023-01-10T14:36:58.719Z,71.56
2023-01-10T14:39:48.946Z,72.48
2023-01-10T14:42:38.462Z,72.25
2023-01-10T14:45:37.530Z,72.27
2023-01-10T14:48:29.083Z,72.46
2023-01-10T14:51:21.180Z,73.12
2023-01-10T14:54:15.143Z,73.19
2023-01-10T14:57:03.679Z,73.54
2023-01-10T14:59:55.663Z,73.44
2023-01-10T15:02:45.937Z,74.28
2023-01-10T15:05:38.319Z,74.21
2023-01-10T15:08:29.136Z,73.21
2023-01-10T15:11:19.034Z,73.66
2023-01-10T15:14:10.819Z,72.71
2023-01-10T15:17:02.248Z,72.22
2023-01-10T15:19:52.473Z,71.91
2023-01-10T15:22:48.424Z,73.11
2023-01-10T15:25:38.660Z,72.84
2023-01-10T15:28:30.003Z,73.00
2023-01-10T15:31:18.515Z,73.05
2023-01-10T15:34:14.948Z,73.88
2023-01-10T15:37:04.142Z,72.57
2023-01-10T15:39:53.872Z,72.93
2023-01-10T15:42:42.561Z,72.92
2023-01-10T15:45:37.643Z,72.81
2023-01-10T15:48:36.854Z,72.69
2023-01-10T15:51:28.293Z,72.88
2023-01-10T15:54:31.161Z,72.56
2023-01-10T15:57:26.314Z,71.40
2023-01-10T16:00:17.569Z,71.44
2023-01-10T16:03:18.980Z,70.90
2023-01-10T16:06:09.890Z,70.92
2023-01-10T16:09:00.293Z,70.09
2023-01-10T16:12:07.362Z,69.32
2023-01-10T16:14:57.262Z,69.58
2023-01-10T16:17:46.689Z,70.77
2023-01-10T16:20:37.879Z,70.37
2023-01-10T16:23:29.476Z,71.20
2023-01-10T16:26:18.335Z,71.22
2023-01-10T16:29:06.809Z,71.38
2023-01-10T16:31:55.443Z,71.80
2023-01-10T16:34:43.960Z,71.57
2023-01-10T16:37:33.826Z,70.98
2023-01-10T16:40:25.037Z,71.90
2023-01-10T16:43:18.333Z,72.08
2023-01-10T16:46:06.951Z,70.95
2023-01-10T16:48:55.558Z,70.78
2023-01-10T16:51:44.033Z,71.83
2023-01-10T16:54:36.332Z,72.18
2023-01-10T16:57:26.152Z,71.80
2023-01-10T17:00:15.275Z,70.85
2023-01-10T17:03:06.001Z,71.11
2023-01-10T17:05:54.462Z,70.15
2023-01-10T17:08:43.774Z,70.87
2023-01-10T17:11:36.389Z,70.86
2023-01-10T17:14:24.921Z,70.80
2023-01-10T17:17:13.673Z,70.99
2023-01-10T17:20:02.179Z,70.90
2023-01-10T17:22:50.767Z,72.82
2023-01-10T17:25:39.293Z,74.44
2023-01-10T17:28:29.975Z,74.90
2023-01-10T17:31:19.727Z,75.72
2023-01-10T17:34:08.433Z,76.15
2023-01-10T17:36:56.961Z,75.32
2023-01-10T17:39:45.405Z,74.94
2023-01-10T17:42:34.096Z,75.64
2023-01-10T17:45:24.226Z,75.87
2023-01-10T17:48:16.123Z,75.86
2023-01-10T17:51:05.398Z,76.86
2023-01-10T17:53:55.999Z,76.86
2023-01-10T17:56:44.460Z,76.88
2023-01-10T17:59:32.921Z,77.24
2023-01-10T18:02:22.940Z,77.28
2023-01-10T18:05:11.852Z,77.37
2023-01-10T18:08:01.145Z,77.51
2023-01-10T18:10:50.248Z,77.58
2023-01-10T18:13:38.979Z,77.72
2023-01-10T18:16:27.568Z,77.48
2023-01-10T18:19:17.429Z,75.60
2023-01-10T18:22:28.075Z,74.63
2023-01-10T18:25:17.509Z,75.37
2023-01-10T18:28:06.363Z,74.73
2023-01-10T18:30:54.956Z,74.87
2023-01-10T18:33:43.700Z,74.53
2023-01-10T18:36:34.825Z,75.50
2023-01-10T18:39:23.331Z,76.62
2023-01-10T18:42:13.155Z,76.99
2023-01-10T18:45:01.744Z,77.67
2023-01-10T18:47:55.539Z,78.17
2023-01-10T18:50:45.099Z,77.89
2023-01-10T18:53:34.950Z,77.80
2023-01-10T18:56:23.434Z,77.70
2023-01-10T18:59:11.939Z,78.53
2023-01-10T19:02:00.453Z,78.79
2023-01-10T19:04:48.999Z,79.05
2023-01-10T19:07:37.837Z,78.47
2023-01-10T19:10:27.683Z,78.28
2023-01-10T19:13:16.205Z,78.73
2023-01-10T19:16:12.748Z,79.78
2023-01-10T19:19:03.182Z,80.24
2023-01-10T19:21:54.537Z,80.45
2023-01-10T19:24:43.132Z,79.45
2023-01-10T19:27:33.810Z,76.77
2023-01-10T19:30:22.347Z,76.89
2023-01-10T19:33:10.849Z,77.21
2023-01-10T19:35:59.333Z,76.58
2023-01-10T19:38:47.891Z,78.10
2023-01-10T19:41:36.932Z,78.97
2023-01-10T19:44:26.855Z,79.19
2023-01-10T19:47:15.683Z,79.73
2023-01-10T19:50:07.140Z,80.50
2023-01-10T19:52:55.684Z,81.86
2023-01-10T19:55:44.292Z,79.12
2023-01-10T19:58:32.958Z,79.28
2023-01-10T20:01:24.802Z,78.92
2023-01-10T20:04:13.847Z,78.84
2023-01-10T20:07:02.526Z,78.13
2023-01-10T20:09:51.149Z,77.74
2023-01-10T20:12:39.801Z,77.64
2023-01-10T20:15:28.462Z,77.71
2023-01-10T20:18:18.429Z,77.33
2023-01-10T20:21:07.940Z,76.21
2023-01-10T20:23:56.452Z,76.34
2023-01-10T20:26:45.021Z,77.01
2023-01-10T20:29:34.428Z,78.03
2023-01-10T20:32:23.120Z,78.42
2023-01-10T20:35:13.906Z,79.21
2023-01-10T20:38:06.484Z,79.39
2023-01-10T20:40:57.696Z,79.82
2023-01-10T20:43:46.594Z,80.62
2023-01-10T20:46:36.585Z,80.94
2023-01-10T20:49:25.219Z,82.12
2023-01-10T20:52:15.049Z,82.90
2023-01-10T20:55:03.596Z,81.73
2023-01-10T20:57:52.233Z,81.17
2023-01-10T21:00:41.076Z,81.36
2023-01-10T21:03:29.568Z,81.41
2023-01-10T21:06:19.536Z,82.19
2023-01-10T21:09:10.785Z,82.43
2023-01-10T21:12:10.686Z,80.73
2023-01-10T21:15:08.540Z,83.12
2023-01-10T21:17:57.104Z,82.38
2023-01-10T21:20:47.399Z,81.84
2023-01-10T21:23:36.485Z,82.06
2023-01-10T21:26:26.366Z,81.51
2023-01-10T21:29:14.863Z,78.95
2023-01-10T21:32:03.418Z,78.19
2023-01-10T21:34:51.921Z,79.34
2023-01-10T21:37:45.616Z,79.65
2023-01-10T21:40:35.337Z,79.37
2023-01-10T21:43:25.185Z,80.54
2023-01-10T21:46:13.721Z,80.67
2023-01-10T21:49:02.299Z,80.70
2023-01-10T21:51:50.866Z,81.35
2023-01-10T21:54:39.347Z,81.65
2023-01-10T21:57:28.349Z,82.52
2023-01-10T22:00:19.357Z,82.63
2023-01-10T22:03:07.887Z,83.26
2023-01-10T22:05:56.600Z,83.04
2023-01-10T22:08:45.162Z,81.92
2023-01-10T22:11:33.621Z,82.80
2023-01-10T22:14:22.301Z,82.66
2023-01-10T22:17:12.200Z,82.46
2023-01-10T22:20:00.611Z,82.34
2023-01-10T22:22:49.122Z,81.89
2023-01-10T22:25:37.577Z,82.28
2023-01-10T22:28:26.060Z,82.98
2023-01-10T22:31:14.753Z,83.37
2023-01-10T22:34:04.625Z,83.10
2023-01-10T22:36:53.119Z,84.01
2023-01-10T22:39:41.606Z,83.49
2023-01-10T22:42:30.035Z,83.84
2023-01-10T22:45:18.593Z,83.80
2023-01-10T22:48:07.323Z,84.19
2023-01-10T22:50:59.281Z,83.54
2023-01-10T22:53:50.286Z,82.98
2023-01-10T22:56:38.785Z,82.69
2023-01-10T22:59:27.234Z,81.92
2023-01-10T23:02:15.787Z,83.15
2023-01-10T23:05:04.372Z,82.56
2023-01-10T23:07:54.534Z,83.70
2023-01-10T23:10:43.625Z,83.50
2023-01-10T23:13:32.149Z,83.56
2023-01-10T23:16:27.422Z,84.17
2023-01-10T23:19:15.867Z,83.91
2023-01-10T23:22:04.367Z,84.35
2023-01-10T23:24:55.584Z,84.44
2023-01-10T23:27:44.078Z,83.95
2023-01-10T23:30:32.546Z,84.27
2023-01-10T23:33:21.549Z,84.19
2023-01-10T23:36:10.871Z,84.02
2023-01-10T23:38:59.353Z,84.72
2023-01-10T23:47:19.693Z,84.63
2023-01-10T23:50:09.608Z,86.52
2023-01-10T23:52:58.105Z,86.25
2023-01-10T23:55:46.978Z,85.47
2023-01-10T23:58:35.462Z,86.20
